createdAt,value
2022-09-12T05:45:01.100Z,99852.19
2022-09-12T05:47:28.603Z,99848.53
2022-09-12T05:49:56.449Z,99844.81
2022-09-12T05:52:23.987Z,99842.13
2022-09-12T05:54:51.468Z,99845.16
2022-09-12T05:57:18.811Z,99846.53
2022-09-12T05:59:46.584Z,99845.69
2022-09-12T06:02:14.228Z,99848.94
2022-09-12T06:04:41.681Z,99862.19
2022-09-12T06:07:11.484Z,99858.03
2022-09-12T06:09:38.866Z,99852.56
2022-09-12T06:12:07.778Z,99852.31
2022-09-12T06:14:35.206Z,99846.63
2022-09-12T06:17:02.737Z,99849.22
2022-09-12T06:19:30.171Z,99842.59
2022-09-12T06:21:57.668Z,99846.28
2022-09-12T06:24:25.219Z,99855.66
2022-09-12T06:26:55.712Z,99849.22
2022-09-12T06:29:23.184Z,99859.19
2022-09-12T06:31:50.491Z,99848.25
2022-09-12T06:34:17.872Z,99858.00
2022-09-12T06:36:46.038Z,99857.53
2022-09-12T06:39:14.321Z,99861.47
2022-09-12T06:41:43.957Z,99864.38
2022-09-12T06:44:16.260Z,99866.13
2022-09-12T06:46:44.454Z,99857.09
2022-09-12T06:49:11.821Z,99868.94
2022-09-12T06:51:41.950Z,99864.25
2022-09-12T06:54:10.817Z,99861.31
2022-09-12T06:56:38.131Z,99866.34
2022-09-12T06:59:05.408Z,99854.00
2022-09-12T07:01:33.345Z,99865.09
2022-09-12T07:04:01.429Z,99860.09
2022-09-12T07:06:32.133Z,99864.03
2022-09-12T07:08:59.876Z,99860.38
2022-09-12T07:11:28.147Z,99857.84
2022-09-12T07:13:56.600Z,99852.44
2022-09-12T07:16:27.195Z,99856.88
2022-09-12T07:18:56.120Z,99849.22
2022-09-12T07:21:23.609Z,99854.31
2022-09-12T07:23:52.100Z,99858.94
2022-09-12T07:26:19.696Z,99865.97
2022-09-12T07:28:50.880Z,99867.44
2022-09-12T07:31:18.389Z,99861.50
2022-09-12T07:33:45.834Z,99861.03
2022-09-12T07:36:14.507Z,99856.50
2022-09-12T07:38:42.149Z,99850.19
2022-09-12T07:41:12.900Z,99835.88
2022-09-12T07:43:40.465Z,99847.84
2022-09-12T07:46:09.528Z,99842.69
2022-09-12T07:48:38.096Z,99833.31
2022-09-12T07:51:06.137Z,99842.69
2022-09-12T07:53:43.555Z,99847.00
2022-09-12T07:56:11.170Z,99850.63
2022-09-12T07:58:40.749Z,99855.81
2022-09-12T08:01:28.322Z,99857.59
2022-09-12T08:03:59.439Z,99837.72
2022-09-12T08:06:27.603Z,99837.34
2022-09-12T08:08:55.827Z,99836.28
2022-09-12T08:11:23.510Z,99847.72
2022-09-12T08:13:55.391Z,99847.38
2022-09-12T08:16:24.715Z,99851.88
2022-09-12T08:18:52.244Z,99856.19
2022-09-12T08:21:20.559Z,99854.97
2022-09-12T08:23:48.563Z,99856.69
2022-09-12T08:26:16.203Z,99848.47
2022-09-12T08:28:45.724Z,99846.13
2022-09-12T08:31:13.980Z,99840.63
2022-09-12T08:33:44.469Z,99824.03
2022-09-12T08:36:15.688Z,99816.84
2022-09-12T08:38:47.043Z,99823.56
2022-09-12T08:41:18.023Z,99820.75
2022-09-12T08:44:04.442Z,99819.47
2022-09-12T08:46:31.883Z,99815.31
2022-09-12T08:48:59.316Z,99811.59
2022-09-12T08:51:27.077Z,99814.25
2022-09-12T08:53:54.848Z,99812.88
2022-09-12T08:56:22.269Z,99800.66
2022-09-12T08:58:49.727Z,99800.22
2022-09-12T09:01:21.603Z,99795.97
2022-09-12T09:04:07.927Z,99798.41
2022-09-12T09:06:41.687Z,99784.84
2022-09-12T09:09:29.560Z,99788.91
2022-09-12T09:11:56.951Z,99793.44
2022-09-12T09:14:49.085Z,99793.91
2022-09-12T09:17:20.330Z,99792.38
2022-09-12T09:19:56.696Z,99782.97
2022-09-12T09:22:27.152Z,99792.75
2022-09-12T09:24:55.806Z,99783.94
2022-09-12T09:27:39.774Z,99766.66
2022-09-12T09:30:18.593Z,99772.06
2022-09-12T09:32:48.149Z,99773.53
2022-09-12T09:35:15.665Z,99775.69
2022-09-12T09:37:44.464Z,99782.38
2022-09-12T09:40:20.579Z,99791.81
2022-09-12T09:42:47.966Z,99796.16
2022-09-12T09:45:19.980Z,99791.28
2022-09-12T09:47:55.108Z,99794.63
2022-09-12T09:50:22.675Z,99790.63
2022-09-12T09:52:50.199Z,99794.50
2022-09-12T09:55:28.312Z,99780.38
2022-09-12T09:57:55.774Z,99787.59
2022-09-12T10:00:30.704Z,99786.38
2022-09-12T10:03:03.067Z,99786.63
2022-09-12T10:05:33.071Z,99786.16
2022-09-12T10:08:00.528Z,99782.88
2022-09-12T10:10:27.845Z,99777.66
2022-09-12T10:13:24.509Z,99775.63
2022-09-12T10:15:57.746Z,99771.78
2022-09-12T10:18:54.507Z,99776.22
2022-09-12T10:21:23.712Z,99766.44
2022-09-12T10:23:51.985Z,99770.63
2022-09-12T10:26:19.793Z,99773.78
2022-09-12T10:28:49.680Z,99776.41
2022-09-12T10:31:17.908Z,99782.44
2022-09-12T10:33:47.382Z,99778.31
2022-09-12T10:36:14.926Z,99774.81
2022-09-12T10:38:48.280Z,99782.47
2022-09-12T10:41:15.676Z,99779.22
2022-09-12T10:43:43.015Z,99778.88
2022-09-12T10:46:16.663Z,99781.69
2022-09-12T10:48:44.497Z,99777.69
2022-09-12T10:51:30.496Z,99787.91
2022-09-12T10:53:58.520Z,99783.88
2022-09-12T10:56:47.413Z,99791.13
2022-09-12T10:59:34.403Z,99801.78
2022-09-12T11:02:05.142Z,99800.47
2022-09-12T11:04:32.501Z,99799.72
2022-09-12T11:07:26.515Z,99808.13
2022-09-12T11:10:06.466Z,99807.91
2022-09-12T11:12:37.460Z,99812.56
2022-09-12T11:15:11.124Z,99813.22
2022-09-12T11:17:38.704Z,99806.66
2022-09-12T11:20:21.352Z,99799.59
2022-09-12T11:23:07.583Z,99793.47
2022-09-12T11:25:55.488Z,99802.41
2022-09-12T11:28:26.112Z,99804.97
2022-09-12T11:31:12.285Z,99801.47
2022-09-12T11:33:42.965Z,99804.47
2022-09-12T11:36:28.952Z,99797.78
2022-09-12T11:38:56.303Z,99791.94
2022-09-12T11:41:28.888Z,99782.38
2022-09-12T11:44:31.888Z,99772.28
2022-09-12T11:46:59.496Z,99766.16
2022-09-12T11:49:33.530Z,99758.06
2022-09-12T11:52:14.895Z,99759.16
2022-09-12T11:54:44.903Z,99766.78
2022-09-12T11:57:12.550Z,99751.53
2022-09-12T11:59:58.664Z,99754.19
2022-09-12T12:02:29.951Z,99750.28
2022-09-12T12:05:03.336Z,99769.16
2022-09-12T12:07:36.010Z,99771.53
2022-09-12T12:10:05.606Z,99769.69
2022-09-12T12:12:33.485Z,99772.53
2022-09-12T12:15:01.235Z,99768.84
2022-09-12T12:17:29.796Z,99767.97
2022-09-12T12:20:06.489Z,99764.16
2022-09-12T12:22:36.156Z,99757.31
2022-09-12T12:25:08.291Z,99756.13
2022-09-12T12:27:45.062Z,99755.88
2022-09-12T12:30:30.903Z,99744.38
2022-09-12T12:33:10.868Z,99747.63
2022-09-12T12:35:40.812Z,99743.22
2022-09-12T12:38:28.461Z,99735.34
2022-09-12T12:41:16.156Z,99737.00
2022-09-12T12:43:44.149Z,99739.19
2022-09-12T12:46:12.229Z,99725.91
2022-09-12T12:49:00.467Z,99719.56
2022-09-12T12:51:37.038Z,99720.94
2022-09-12T12:54:09.805Z,99722.47
2022-09-12T12:56:40.642Z,99714.63
2022-09-12T12:59:18.227Z,99726.56
2022-09-12T13:01:51.556Z,99730.94
2022-09-12T13:04:22.358Z,99724.31
2022-09-12T13:06:57.405Z,99727.34
2022-09-12T13:09:24.992Z,99712.28
2022-09-12T13:12:05.699Z,99711.88
2022-09-12T13:14:48.706Z,99709.81
2022-09-12T13:17:22.820Z,99698.44
2022-09-12T13:20:00.756Z,99701.13
2022-09-12T13:22:43.270Z,99702.13
2022-09-12T13:25:31.406Z,99703.28
2022-09-12T13:27:59.086Z,99697.84
2022-09-12T13:30:26.382Z,99708.59
2022-09-12T13:32:54.119Z,99719.88
2022-09-12T13:35:21.424Z,99719.47
2022-09-12T13:37:51.462Z,99706.69
2022-09-12T13:40:32.507Z,99708.56
2022-09-12T13:43:07.966Z,99710.50
2022-09-12T13:45:36.943Z,99709.56
2022-09-12T13:48:04.571Z,99718.75
2022-09-12T13:51:01.486Z,99706.16
2022-09-12T13:53:30.549Z,99706.97
2022-09-12T13:56:00.948Z,99698.56
2022-09-12T13:58:29.151Z,99707.00
2022-09-12T14:01:05.581Z,99712.91
2022-09-12T14:03:56.761Z,99709.47
2022-09-12T14:06:27.848Z,99702.97
2022-09-12T14:08:59.317Z,99705.41
2022-09-12T14:11:31.039Z,99716.59
2022-09-12T14:13:58.847Z,99723.53
2022-09-12T14:16:29.266Z,99711.63
2022-09-12T14:18:57.241Z,99711.25
2022-09-12T14:21:34.297Z,99717.81
2022-09-12T14:24:01.980Z,99710.44
2022-09-12T14:26:32.711Z,99714.50
2022-09-12T14:29:00.657Z,99713.78
2022-09-12T14:31:31.884Z,99715.91
2022-09-12T14:34:12.016Z,99705.97
2022-09-12T14:36:57.779Z,99706.06
2022-09-12T14:39:31.459Z,99708.50
2022-09-12T14:42:03.644Z,99704.91
2022-09-12T14:44:31.328Z,99709.25
2022-09-12T14:47:00.536Z,99705.22
2022-09-12T14:49:31.335Z,99702.75
2022-09-12T14:52:00.419Z,99702.47
2022-09-12T14:54:27.785Z,99703.00
2022-09-12T14:56:55.951Z,99691.72
2022-09-12T14:59:35.305Z,99694.28
2022-09-12T15:02:18.194Z,99678.19
2022-09-12T15:04:49.077Z,99685.13
2022-09-12T15:07:22.861Z,99685.16
2022-09-12T15:09:50.891Z,99690.03
2022-09-12T15:12:18.183Z,99679.78
2022-09-12T15:14:45.829Z,99683.53
2022-09-12T15:17:13.296Z,99681.59
2022-09-12T15:19:41.789Z,99688.84
2022-09-12T15:22:15.147Z,99690.00
2022-09-12T15:24:42.602Z,99692.16
2022-09-12T15:27:12.816Z,99686.97
2022-09-12T15:29:40.472Z,99676.56
2022-09-12T15:32:09.855Z,99687.25
2022-09-12T15:34:38.186Z,99677.75
2022-09-12T15:37:09.886Z,99682.19
2022-09-12T15:39:38.063Z,99681.38
2022-09-12T15:42:05.439Z,99670.44
2022-09-12T15:44:33.633Z,99675.94
2022-09-12T15:47:01.115Z,99678.09
2022-09-12T15:49:28.895Z,99680.31
2022-09-12T15:51:56.283Z,99678.31
2022-09-12T15:54:23.726Z,99677.19
2022-09-12T15:56:51.483Z,99674.97
2022-09-12T15:59:18.834Z,99674.66
2022-09-12T16:01:46.415Z,99678.81
2022-09-12T16:04:21.426Z,99673.91
2022-09-12T16:06:49.221Z,99668.78
2022-09-12T16:09:16.928Z,99674.88
2022-09-12T16:11:45.563Z,99678.19
2022-09-12T16:14:13.875Z,99681.50
2022-09-12T16:16:41.866Z,99683.16
2022-09-12T16:19:11.183Z,99693.25
2022-09-12T16:21:39.194Z,99693.56
2022-09-12T16:24:06.724Z,99691.56
2022-09-12T16:26:34.765Z,99689.75
2022-09-12T16:29:02.074Z,99692.78
2022-09-12T16:31:29.816Z,99696.44
2022-09-12T16:33:57.274Z,99693.47
2022-09-12T16:36:24.882Z,99695.09
2022-09-12T16:38:53.172Z,99687.03
2022-09-12T16:41:21.773Z,99685.34
2022-09-12T16:43:49.807Z,99697.25
2022-09-12T16:46:19.334Z,99695.94
2022-09-12T16:48:52.189Z,99696.09
2022-09-12T16:51:21.076Z,99695.28
2022-09-12T16:53:48.892Z,99689.66
2022-09-12T16:56:16.826Z,99690.78
2022-09-12T16:58:44.457Z,99701.84
2022-09-12T17:01:16.031Z,99698.38
2022-09-12T17:03:44.102Z,99706.16
2022-09-12T17:06:15.631Z,99705.16
2022-09-12T17:08:47.854Z,99714.41
2022-09-12T17:11:16.786Z,99712.59
2022-09-12T17:14:07.439Z,99704.34
2022-09-12T17:16:36.204Z,99700.88
2022-09-12T17:19:04.191Z,99699.19
2022-09-12T17:21:32.119Z,99711.78
2022-09-12T17:23:59.750Z,99712.06
2022-09-12T17:26:27.836Z,99702.84
2022-09-12T17:28:56.400Z,99716.03
2022-09-12T17:31:24.225Z,99724.13
2022-09-12T17:33:55.524Z,99719.97
2022-09-12T17:36:23.615Z,99725.25
2022-09-12T17:38:51.934Z,99723.56
2022-09-12T17:41:19.990Z,99717.97
2022-09-12T17:43:50.343Z,99716.53
2022-09-12T17:46:18.553Z,99721.47
2022-09-12T17:48:50.720Z,99718.69
2022-09-12T17:51:18.307Z,99715.34
2022-09-12T17:53:45.882Z,99713.97
2022-09-12T17:56:13.273Z,99710.84
2022-09-12T17:58:40.858Z,99704.28
2022-09-12T18:01:29.373Z,99694.34
2022-09-12T18:03:57.678Z,99687.13
2022-09-12T18:06:25.131Z,99694.69
2022-09-12T18:08:53.363Z,99690.06
2022-09-12T18:11:21.011Z,99699.28
2022-09-12T18:13:50.664Z,99700.47
2022-09-12T18:16:18.449Z,99706.88
2022-09-12T18:18:46.143Z,99701.16
2022-09-12T18:21:13.692Z,99699.63
2022-09-12T18:23:41.172Z,99702.09
2022-09-12T18:26:09.021Z,99704.09
2022-09-12T18:28:37.714Z,99700.13
2022-09-12T18:31:05.537Z,99708.97
2022-09-12T18:33:33.201Z,99708.03
2022-09-12T18:36:07.414Z,99697.88
2022-09-12T18:38:35.039Z,99689.69
2022-09-12T18:41:06.106Z,99699.47
2022-09-12T18:43:34.189Z,99701.44
2022-09-12T18:46:03.897Z,99702.03
2022-09-12T18:48:32.631Z,99712.25
2022-09-12T18:51:05.755Z,99705.50
2022-09-12T18:53:34.294Z,99716.00
2022-09-12T18:56:06.399Z,99721.50
2022-09-12T18:58:35.240Z,99722.34
2022-09-12T19:01:10.101Z,99730.13
2022-09-12T19:03:37.996Z,99725.59
2022-09-12T19:06:09.292Z,99729.53
2022-09-12T19:08:37.107Z,99728.00
2022-09-12T19:11:05.267Z,99720.72
2022-09-12T19:13:34.135Z,99728.19
2022-09-12T19:16:01.656Z,99722.16
2022-09-12T19:18:31.471Z,99721.72
2022-09-12T19:20:58.763Z,99725.13
2022-09-12T19:23:26.761Z,99722.13
2022-09-12T19:25:58.318Z,99716.00
2022-09-12T19:28:25.735Z,99709.56
2022-09-12T19:30:53.671Z,99717.31
2022-09-12T19:33:21.414Z,99700.34
2022-09-12T19:35:49.092Z,99699.03
2022-09-12T19:38:16.644Z,99695.81
2022-09-12T19:40:44.612Z,99696.22
2022-09-12T19:43:12.104Z,99695.94
2022-09-12T19:45:39.591Z,99699.03
2022-09-12T19:48:07.423Z,99690.06
2022-09-12T19:50:34.818Z,99685.03
2022-09-12T19:53:02.655Z,99683.91
2022-09-12T19:55:30.354Z,99676.25
2022-09-12T19:57:58.029Z,99665.44
2022-09-12T20:00:25.491Z,99660.53
2022-09-12T20:02:53.110Z,99654.94
2022-09-12T20:05:20.734Z,99654.94
2022-09-12T20:07:48.383Z,99654.31
2022-09-12T20:10:16.014Z,99649.06
2022-09-12T20:12:43.362Z,99649.63
2022-09-12T20:15:14.315Z,99640.50
2022-09-12T20:17:42.510Z,99640.22
2022-09-12T20:20:10.538Z,99632.13
2022-09-12T20:22:40.183Z,99630.38
2022-09-12T20:25:08.150Z,99625.28
2022-09-12T20:27:35.632Z,99621.69
2022-09-12T20:30:03.144Z,99634.75
2022-09-12T20:32:30.950Z,99624.63
2022-09-12T20:34:58.244Z,99627.88
2022-09-12T20:37:25.692Z,99620.63
2022-09-12T20:39:54.655Z,99621.97
2022-09-12T20:42:22.163Z,99627.56
2022-09-12T20:44:49.713Z,99626.34
2022-09-12T20:47:17.185Z,99628.84
2022-09-12T20:49:44.443Z,99628.75
2022-09-12T20:52:11.821Z,99630.88
2022-09-12T20:54:39.783Z,99624.66
2022-09-12T20:57:07.149Z,99636.00
2022-09-12T20:59:35.361Z,99639.75
2022-09-12T21:02:03.013Z,99644.16
2022-09-12T21:04:30.778Z,99644.19
2022-09-12T21:06:58.594Z,99642.59
2022-09-12T21:09:25.926Z,99640.50
2022-09-12T21:11:53.374Z,99634.31
2022-09-12T21:14:20.756Z,99639.16
2022-09-12T21:16:48.294Z,99633.28
2022-09-12T21:19:17.042Z,99634.84
2022-09-12T21:21:45.073Z,99634.50
2022-09-12T21:24:13.292Z,99638.56
2022-09-12T21:26:40.753Z,99640.44
2022-09-12T21:29:08.474Z,99636.88
2022-09-12T21:31:37.289Z,99633.41
2022-09-12T21:34:04.859Z,99640.59
2022-09-12T21:36:32.866Z,99644.44
2022-09-12T21:39:00.440Z,99638.22
2022-09-12T21:41:28.866Z,99637.53
2022-09-12T21:43:56.286Z,99637.91
2022-09-12T21:46:23.868Z,99638.16
2022-09-12T21:48:51.431Z,99638.47
2022-09-12T21:51:19.285Z,99638.69
2022-09-12T21:53:46.702Z,99646.84
2022-09-12T21:56:14.053Z,99635.69
2022-09-12T21:58:41.377Z,99641.56
2022-09-12T22:01:10.692Z,99638.47
2022-09-12T22:03:38.978Z,99638.16
2022-09-12T22:06:06.481Z,99633.91
2022-09-12T22:08:35.529Z,99632.47
2022-09-12T22:11:03.889Z,99631.03
2022-09-12T22:13:32.703Z,99630.19
2022-09-12T22:16:03.719Z,99626.59
2022-09-12T22:18:35.364Z,99614.88
2022-09-12T22:21:04.240Z,99616.13
2022-09-12T22:23:50.486Z,99613.31
2022-09-12T22:26:18.207Z,99611.75
2022-09-12T22:28:47.311Z,99611.75
2022-09-12T22:31:14.970Z,99618.66
2022-09-12T22:33:42.412Z,99618.47
2022-09-12T22:36:10.178Z,99624.13
2022-09-12T22:38:37.743Z,99620.88
2022-09-12T22:41:05.722Z,99619.22
2022-09-12T22:43:33.628Z,99611.16
2022-09-12T22:46:01.157Z,99617.16
2022-09-12T22:48:28.596Z,99618.59
2022-09-12T22:50:56.041Z,99609.47
2022-09-12T22:53:23.377Z,99614.00
2022-09-12T22:55:50.769Z,99609.47
2022-09-12T22:58:18.335Z,99615.69
2022-09-12T23:00:46.269Z,99614.66
2022-09-12T23:03:13.744Z,99610.31
2022-09-12T23:05:41.066Z,99621.50
2022-09-12T23:08:08.471Z,99612.78
2022-09-12T23:10:36.983Z,99620.78
2022-09-12T23:13:05.213Z,99616.22
2022-09-12T23:15:33.014Z,99611.16
2022-09-12T23:18:00.594Z,99608.78
2022-09-12T23:20:28.126Z,99605.56
2022-09-12T23:22:55.648Z,99610.63
2022-09-12T23:25:23.836Z,99611.34
2022-09-12T23:27:51.266Z,99608.25
2022-09-12T23:30:21.703Z,99600.81
2022-09-12T23:32:49.310Z,99613.03
2022-09-12T23:35:18.530Z,99601.31
2022-09-12T23:37:46.514Z,99601.75
2022-09-12T23:40:13.941Z,99592.94
2022-09-12T23:42:41.640Z,99582.81
2022-09-12T23:45:10.132Z,99585.28
2022-09-12T23:47:38.112Z,99577.22
2022-09-12T23:50:05.594Z,99584.63
2022-09-12T23:52:32.903Z,99574.63
2022-09-12T23:55:00.320Z,99573.47
2022-09-12T23:57:27.899Z,99574.50
2022-09-12T23:59:55.421Z,99577.28
